sensor_id;sensor_type;location;lat;lon;timestamp;pressure;altitude;pressure_sealevel;temperature;humidity
24280;BME280;12395;42.808;23.408;2023-10-13T00:01:58;95402.28;;;9.82;98.10
24280;BME280;12395;42.808;23.408;2023-10-13T00:04:30;95384.72;;;9.74;97.94
24280;BME280;12395;42.808;23.408;2023-10-13T00:06:58;95385.03;;;9.65;97.29
24280;BME280;12395;42.808;23.408;2023-10-13T00:09:27;95382.59;;;9.63;99.31
24280;BME280;12395;42.808;23.408;2023-10-13T00:12:03;95397.88;;;9.68;98.63
24280;BME280;12395;42.808;23.408;2023-10-13T00:14:29;95391.91;;;9.59;99.11
24280;BME280;12395;42.808;23.408;2023-10-13T00:17:01;95390.78;;;9.47;99.77
24280;BME280;12395;42.808;23.408;2023-10-13T00:19:38;95387.03;;;9.42;99.75
24280;BME280;12395;42.808;23.408;2023-10-13T00:22:08;95390.59;;;9.49;100.00
24280;BME280;12395;42.808;23.408;2023-10-13T00:24:41;95375.47;;;9.43;99.95
24280;BME280;12395;42.808;23.408;2023-10-13T00:27:16;95393.59;;;9.46;99.88
24280;BME280;12395;42.808;23.408;2023-10-13T00:30:05;95386.16;;;9.34;100.00
24280;BME280;12395;42.808;23.408;2023-10-13T00:32:51;95385.00;;;9.22;100.00
24280;BME280;12395;42.808;23.408;2023-10-13T00:35:21;95386.53;;;9.31;100.00
24280;BME280;12395;42.808;23.408;2023-10-13T00:38:07;95382.88;;;9.32;100.00
24280;BME280;12395;42.808;23.408;2023-10-13T00:40:41;95379.88;;;9.36;100.00
24280;BME280;12395;42.808;23.408;2023-10-13T00:43:08;95382.31;;;9.37;100.00
24280;BME280;12395;42.808;23.408;2023-10-13T00:45:55;95390.09;;;9.39;100.00
24280;BME280;12395;42.808;23.408;2023-10-13T00:48:36;95382.63;;;9.27;100.00
24280;BME280;12395;42.808;23.408;2023-10-13T00:51:08;95388.38;;;9.31;100.00
24280;BME280;12395;42.808;23.408;2023-10-13T00:53:44;95385.78;;;9.16;100.00
24280;BME280;12395;42.808;23.408;2023-10-13T00:56:13;95396.06;;;9.11;100.00
24280;BME280;12395;42.808;23.408;2023-10-13T00:58:53;95390.97;;;9.10;100.00
24280;BME280;12395;42.808;23.408;2023-10-13T01:01:21;95390.63;;;9.13;100.00
24280;BME280;12395;42.808;23.408;2023-10-13T01:03:48;95385.78;;;9.16;100.00
24280;BME280;12395;42.808;23.408;2023-10-13T01:06:18;95376.38;;;9.14;100.00
24280;BME280;12395;42.808;23.408;2023-10-13T01:08:48;95393.97;;;9.21;100.00
24280;BME280;12395;42.808;23.408;2023-10-13T01:11:19;95378.47;;;9.18;100.00
24280;BME280;12395;42.808;23.408;2023-10-13T01:13:49;95389.47;;;9.22;100.00
24280;BME280;12395;42.808;23.408;2023-10-13T01:16:17;95386.28;;;9.26;100.00
24280;BME280;12395;42.808;23.408;2023-10-13T01:18:43;95374.19;;;9.17;100.00
24280;BME280;12395;42.808;23.408;2023-10-13T01:21:17;95385.78;;;9.16;100.00
24280;BME280;12395;42.808;23.408;2023-10-13T01:23:46;95383.13;;;9.16;100.00
24280;BME280;12395;42.808;23.408;2023-10-13T01:26:13;95385.78;;;9.16;100.00
24280;BME280;12395;42.808;23.408;2023-10-13T01:28:43;95400.44;;;9.19;100.00
24280;BME280;12395;42.808;23.408;2023-10-13T01:31:12;95398.63;;;9.19;100.00
24280;BME280;12395;42.808;23.408;2023-10-13T01:34:04;95394.06;;;9.13;100.00
24280;BME280;12395;42.808;23.408;2023-10-13T01:36:29;95392.16;;;9.07;100.00
24280;BME280;12395;42.808;23.408;2023-10-13T01:39:00;95406.97;;;9.02;100.00
24280;BME280;12395;42.808;23.408;2023-10-13T01:41:26;95396.94;;;8.97;100.00
24280;BME280;12395;42.808;23.408;2023-10-13T01:43:52;95396.53;;;9.00;100.00
24280;BME280;12395;42.808;23.408;2023-10-13T01:46:17;95382.63;;;8.92;100.00
24280;BME280;12395;42.808;23.408;2023-10-13T01:48:47;95399.84;;;9.02;100.00
24280;BME280;12395;42.808;23.408;2023-10-13T01:51:13;95397.75;;;8.98;100.00
24280;BME280;12395;42.808;23.408;2023-10-13T01:53:39;95392.31;;;8.85;100.00
24280;BME280;12395;42.808;23.408;2023-10-13T01:56:05;95384.56;;;8.83;100.00
24280;BME280;12395;42.808;23.408;2023-10-13T01:58:38;95379.47;;;8.82;100.00
24280;BME280;12395;42.808;23.408;2023-10-13T02:01:08;95393.78;;;8.87;100.00
24280;BME280;12395;42.808;23.408;2023-10-13T02:03:34;95397.69;;;8.91;100.00
24280;BME280;12395;42.808;23.408;2023-10-13T02:06:01;95368.19;;;8.73;100.00
24280;BME280;12395;42.808;23.408;2023-10-13T02:08:30;95384.41;;;8.70;100.00
24280;BME280;12395;42.808;23.408;2023-10-13T02:10:57;95394.16;;;8.70;100.00
24280;BME280;12395;42.808;23.408;2023-10-13T02:13:24;95402.31;;;8.75;100.00
24280;BME280;12395;42.808;23.408;2023-10-13T02:15:54;95390.88;;;8.68;100.00
24280;BME280;12395;42.808;23.408;2023-10-13T02:18:22;95404.63;;;8.63;100.00
24280;BME280;12395;42.808;23.408;2023-10-13T02:21:11;95398.72;;;8.46;100.00
24280;BME280;12395;42.808;23.408;2023-10-13T02:23:40;95397.34;;;8.36;100.00
24280;BME280;12395;42.808;23.408;2023-10-13T02:26:13;95378.38;;;8.18;100.00
24280;BME280;12395;42.808;23.408;2023-10-13T02:28:55;95401.34;;;8.32;100.00
24280;BME280;12395;42.808;23.408;2023-10-13T02:31:22;95394.44;;;8.31;100.00
24280;BME280;12395;42.808;23.408;2023-10-13T02:33:49;95396.72;;;8.34;100.00
24280;BME280;12395;42.808;23.408;2023-10-13T02:36:15;95400.97;;;8.35;100.00
24280;BME280;12395;42.808;23.408;2023-10-13T02:38:47;95404.63;;;8.34;100.00
24280;BME280;12395;42.808;23.408;2023-10-13T02:41:18;95402.00;;;8.34;100.00
24280;BME280;12395;42.808;23.408;2023-10-13T02:43:54;95401.06;;;8.27;100.00
24280;BME280;12395;42.808;23.408;2023-10-13T02:46:21;95402.06;;;8.26;100.00
24280;BME280;12395;42.808;23.408;2023-10-13T02:48:53;95397.03;;;8.16;100.00
24280;BME280;12395;42.808;23.408;2023-10-13T02:51:20;95392.00;;;8.07;100.00
24280;BME280;12395;42.808;23.408;2023-10-13T02:54:01;95399.91;;;8.07;100.00
24280;BME280;12395;42.808;23.408;2023-10-13T02:56:36;95401.91;;;8.05;100.00
24280;BME280;12395;42.808;23.408;2023-10-13T02:59:02;95400.28;;;8.04;100.00
24280;BME280;12395;42.808;23.408;2023-10-13T03:01:34;95394.19;;;8.03;100.00
24280;BME280;12395;42.808;23.408;2023-10-13T03:04:01;95408.47;;;8.09;100.00
24280;BME280;12395;42.808;23.408;2023-10-13T03:06:28;95411.81;;;8.03;100.00
24280;BME280;12395;42.808;23.408;2023-10-13T03:09:04;95413.59;;;8.10;100.00
24280;BME280;12395;42.808;23.408;2023-10-13T03:11:47;95401.38;;;8.09;100.00
24280;BME280;12395;42.808;23.408;2023-10-13T03:14:22;95416.03;;;8.12;100.00
24280;BME280;12395;42.808;23.408;2023-10-13T03:16:55;95400.44;;;8.02;100.00
24280;BME280;12395;42.808;23.408;2023-10-13T03:19:21;95404.00;;;7.95;100.00
24280;BME280;12395;42.808;23.408;2023-10-13T03:21:47;95409.56;;;8.00;100.00
24280;BME280;12395;42.808;23.408;2023-10-13T03:24:21;95396.00;;;8.03;100.00
24280;BME280;12395;42.808;23.408;2023-10-13T03:27:01;95399.66;;;8.02;100.00
24280;BME280;12395;42.808;23.408;2023-10-13T03:29:38;95400.19;;;7.97;100.00
24280;BME280;12395;42.808;23.408;2023-10-13T03:32:09;95395.91;;;7.96;100.00
24280;BME280;12395;42.808;23.408;2023-10-13T03:34:39;95408.66;;;8.07;100.00
24280;BME280;12395;42.808;23.408;2023-10-13T03:37:17;95401.81;;;8.13;100.00
24280;BME280;12395;42.808;23.408;2023-10-13T03:39:45;95407.47;;;8.10;100.00
24280;BME280;12395;42.808;23.408;2023-10-13T03:42:11;95400.72;;;7.93;100.00
24280;BME280;12395;42.808;23.408;2023-10-13T03:44:47;95409.06;;;7.82;100.00
24280;BME280;12395;42.808;23.408;2023-10-13T03:47:13;95395.13;;;7.73;100.00
24280;BME280;12395;42.808;23.408;2023-10-13T03:49:52;95398.50;;;7.82;100.00
24280;BME280;12395;42.808;23.408;2023-10-13T03:52:38;95393.75;;;7.77;100.00
24280;BME280;12395;42.808;23.408;2023-10-13T03:55:04;95394.50;;;7.86;100.00
24280;BME280;12395;42.808;23.408;2023-10-13T03:57:31;95381.84;;;7.81;100.00
24280;BME280;12395;42.808;23.408;2023-10-13T03:59:59;95398.25;;;7.91;100.00
24280;BME280;12395;42.808;23.408;2023-10-13T04:02:33;95391.69;;;7.87;100.00
24280;BME280;12395;42.808;23.408;2023-10-13T04:04:58;95396.06;;;7.80;100.00
24280;BME280;12395;42.808;23.408;2023-10-13T04:07:32;95390.66;;;7.73;100.00
24280;BME280;12395;42.808;23.408;2023-10-13T04:09:58;95386.97;;;7.60;100.00
24280;BME280;12395;42.808;23.408;2023-10-13T04:12:42;95390.97;;;7.56;100.00
24280;BME280;12395;42.808;23.408;2023-10-13T04:15:26;95393.16;;;7.52;100.00
24280;BME280;12395;42.808;23.408;2023-10-13T04:18:02;95381.13;;;7.50;100.00
24280;BME280;12395;42.808;23.408;2023-10-13T04:20:39;95394.78;;;7.53;100.00
24280;BME280;12395;42.808;23.408;2023-10-13T04:23:05;95392.84;;;7.47;100.00
24280;BME280;12395;42.808;23.408;2023-10-13T04:25:43;95401.00;;;7.60;100.00
24280;BME280;12395;42.808;23.408;2023-10-13T04:28:32;95390.06;;;7.63;100.00
24280;BME280;12395;42.808;23.408;2023-10-13T04:31:03;95374.69;;;7.52;100.00
24280;BME280;12395;42.808;23.408;2023-10-13T04:33:37;95402.91;;;7.66;100.00
24280;BME280;12395;42.808;23.408;2023-10-13T04:36:17;95404.91;;;7.64;100.00
24280;BME280;12395;42.808;23.408;2023-10-13T04:38:48;95393.59;;;7.56;100.00
24280;BME280;12395;42.808;23.408;2023-10-13T04:41:39;95406.16;;;7.54;100.00
24280;BME280;12395;42.808;23.408;2023-10-13T04:44:08;95396.78;;;7.51;100.00
24280;BME280;12395;42.808;23.408;2023-10-13T04:46:53;95404.91;;;7.64;100.00
24280;BME280;12395;42.808;23.408;2023-10-13T04:49:25;95406.00;;;7.70;100.00
24280;BME280;12395;42.808;23.408;2023-10-13T04:51:59;95411.78;;;7.73;100.00
24280;BME280;12395;42.808;23.408;2023-10-13T04:54:26;95409.47;;;7.70;100.00
24280;BME280;12395;42.808;23.408;2023-10-13T04:56:58;95417.50;;;7.77;100.00
24280;BME280;12395;42.808;23.408;2023-10-13T04:59:42;95424.06;;;7.81;100.00
24280;BME280;12395;42.808;23.408;2023-10-13T05:02:26;95422.53;;;7.87;100.00
24280;BME280;12395;42.808;23.408;2023-10-13T05:05:12;95427.00;;;7.86;100.00
24280;BME280;12395;42.808;23.408;2023-10-13T05:07:44;95439.13;;;7.95;100.00
24280;BME280;12395;42.808;23.408;2023-10-13T05:10:29;95433.84;;;7.95;100.00
24280;BME280;12395;42.808;23.408;2023-10-13T05:13:13;95433.53;;;7.90;100.00
24280;BME280;12395;42.808;23.408;2023-10-13T05:15:57;95449.50;;;7.97;100.00
24280;BME280;12395;42.808;23.408;2023-10-13T05:18:41;95453.09;;;7.96;100.00
24280;BME280;12395;42.808;23.408;2023-10-13T05:21:25;95456.50;;;8.04;100.00
24280;BME280;12395;42.808;23.408;2023-10-13T05:24:09;95450.97;;;7.99;100.00
24280;BME280;12395;42.808;23.408;2023-10-13T05:26:53;95458.88;;;7.99;100.00
24280;BME280;12395;42.808;23.408;2023-10-13T05:29:42;95481.81;;;8.13;100.00
24280;BME280;12395;42.808;23.408;2023-10-13T05:32:26;95488.56;;;8.16;100.00
24280;BME280;12395;42.808;23.408;2023-10-13T05:35:11;95484.03;;;8.24;100.00
24280;BME280;12395;42.808;23.408;2023-10-13T05:37:55;95482.53;;;8.30;100.00
24280;BME280;12395;42.808;23.408;2023-10-13T05:40:39;95474.91;;;8.35;100.00
24280;BME280;12395;42.808;23.408;2023-10-13T05:43:23;95472.19;;;8.43;100.00
24280;BME280;12395;42.808;23.408;2023-10-13T05:46:07;95475.75;;;8.50;100.00
24280;BME280;12395;42.808;23.408;2023-10-13T05:48:32;95489.50;;;8.60;100.00
24280;BME280;12395;42.808;23.408;2023-10-13T05:51:28;95491.88;;;8.70;100.00
24280;BME280;12395;42.808;23.408;2023-10-13T05:54:12;95478.31;;;8.73;100.00
24280;BME280;12395;42.808;23.408;2023-10-13T05:56:39;95483.53;;;8.81;100.00
24280;BME280;12395;42.808;23.408;2023-10-13T05:59:23;95476.94;;;8.91;100.00
24280;BME280;12395;42.808;23.408;2023-10-13T06:02:07;95486.03;;;9.03;100.00
24280;BME280;12395;42.808;23.408;2023-10-13T06:04:51;95474.38;;;9.12;100.00
24280;BME280;12395;42.808;23.408;2023-10-13T06:07:35;95479.38;;;9.22;100.00
24280;BME280;12395;42.808;23.408;2023-10-13T06:10:18;95476.81;;;9.28;100.00
24280;BME280;12395;42.808;23.408;2023-10-13T06:13:03;95474.88;;;9.37;100.00
24280;BME280;12395;42.808;23.408;2023-10-13T06:15:46;95491.00;;;9.42;100.00
24280;BME280;12395;42.808;23.408;2023-10-13T06:18:30;95498.06;;;9.56;100.00
24280;BME280;12395;42.808;23.408;2023-10-13T06:21:14;95504.06;;;9.65;100.00
24280;BME280;12395;42.808;23.408;2023-10-13T06:23:58;95503.09;;;9.66;100.00
24280;BME280;12395;42.808;23.408;2023-10-13T06:26:42;95505.88;;;9.79;100.00
24280;BME280;12395;42.808;23.408;2023-10-13T06:29:26;95513.06;;;9.85;100.00
24280;BME280;12395;42.808;23.408;2023-10-13T06:31:51;95508.75;;;9.84;100.00
24280;BME280;12395;42.808;23.408;2023-10-13T06:34:17;95505.38;;;9.90;100.00
24280;BME280;12395;42.808;23.408;2023-10-13T06:36:46;95503.44;;;9.98;100.00
24280;BME280;12395;42.808;23.408;2023-10-13T06:39:13;95507.16;;;10.04;100.00
24280;BME280;12395;42.808;23.408;2023-10-13T06:41:56;95516.06;;;10.18;100.00
24280;BME280;12395;42.808;23.408;2023-10-13T06:44:22;95516.50;;;10.21;100.00
24280;BME280;12395;42.808;23.408;2023-10-13T06:46:47;95520.09;;;10.35;100.00
24280;BME280;12395;42.808;23.408;2023-10-13T06:49:15;95509.94;;;10.38;100.00
24280;BME280;12395;42.808;23.408;2023-10-13T06:51:43;95498.38;;;10.46;100.00
24280;BME280;12395;42.808;23.408;2023-10-13T06:54:11;95503.19;;;10.63;100.00
24280;BME280;12395;42.808;23.408;2023-10-13T06:56:45;95515.75;;;10.82;100.00
24280;BME280;12395;42.808;23.408;2023-10-13T06:59:11;95503.38;;;10.90;100.00
24280;BME280;12395;42.808;23.408;2023-10-13T07:01:40;95498.78;;;11.05;100.00
24280;BME280;12395;42.808;23.408;2023-10-13T07:04:09;95500.31;;;11.20;100.00
24280;BME280;12395;42.808;23.408;2023-10-13T07:06:42;95512.22;;;11.37;100.00
24280;BME280;12395;42.808;23.408;2023-10-13T07:09:13;95523.91;;;11.49;100.00
24280;BME280;12395;42.808;23.408;2023-10-13T07:11:59;95524.78;;;11.63;99.35
24280;BME280;12395;42.808;23.408;2023-10-13T07:14:26;95521.78;;;11.73;98.40
24280;BME280;12395;42.808;23.408;2023-10-13T07:16:57;95516.13;;;11.89;98.02
24280;BME280;12395;42.808;23.408;2023-10-13T07:19:28;95518.16;;;12.00;97.43
24280;BME280;12395;42.808;23.408;2023-10-13T07:21:58;95524.94;;;12.15;96.09
24280;BME280;12395;42.808;23.408;2023-10-13T07:24:27;95511.47;;;12.17;95.33
24280;BME280;12395;42.808;23.408;2023-10-13T07:26:59;95509.41;;;12.25;94.55
24280;BME280;12395;42.808;23.408;2023-10-13T07:29:33;95505.16;;;12.37;94.17
24280;BME280;12395;42.808;23.408;2023-10-13T07:32:01;95509.25;;;12.60;94.14
24280;BME280;12395;42.808;23.408;2023-10-13T07:34:38;95509.44;;;12.78;93.57
24280;BME280;12395;42.808;23.408;2023-10-13T07:37:04;95499.81;;;12.90;92.48
24280;BME280;12395;42.808;23.408;2023-10-13T07:39:33;95504.13;;;13.10;91.16
24280;BME280;12395;42.808;23.408;2023-10-13T07:42:04;95509.19;;;13.32;89.85
24280;BME280;12395;42.808;23.408;2023-10-13T07:44:40;95504.81;;;13.50;90.17
24280;BME280;12395;42.808;23.408;2023-10-13T07:47:11;95508.63;;;13.74;88.72
24280;BME280;12395;42.808;23.408;2023-10-13T07:49:37;95520.56;;;14.03;87.85
24280;BME280;12395;42.808;23.408;2023-10-13T07:52:09;95503.44;;;14.23;84.91
24280;BME280;12395;42.808;23.408;2023-10-13T07:54:50;95515.97;;;14.54;83.86
24280;BME280;12395;42.808;23.408;2023-10-13T07:57:31;95505.50;;;14.77;82.64
24280;BME280;12395;42.808;23.408;2023-10-13T07:59:57;95500.38;;;15.00;81.46
24280;BME280;12395;42.808;23.408;2023-10-13T08:02:36;95500.13;;;15.26;80.64
24280;BME280;12395;42.808;23.408;2023-10-13T08:05:15;95501.63;;;15.59;78.07
24280;BME280;12395;42.808;23.408;2023-10-13T08:08:05;95504.28;;;15.77;77.02
24280;BME280;12395;42.808;23.408;2023-10-13T08:10:39;95503.22;;;15.96;76.59
24280;BME280;12395;42.808;23.408;2023-10-13T08:13:07;95502.88;;;16.04;76.03
24280;BME280;12395;42.808;23.408;2023-10-13T08:15:40;95508.16;;;16.10;76.00
24280;BME280;12395;42.808;23.408;2023-10-13T08:18:12;95524.09;;;16.17;72.46
24280;BME280;12395;42.808;23.408;2023-10-13T08:20:45;95521.34;;;16.23;72.92
24280;BME280;12395;42.808;23.408;2023-10-13T08:23:10;95517.53;;;16.31;72.83
24280;BME280;12395;42.808;23.408;2023-10-13T08:25:40;95520.03;;;16.44;72.06
24280;BME280;12395;42.808;23.408;2023-10-13T08:28:23;95509.84;;;16.64;71.48
24280;BME280;12395;42.808;23.408;2023-10-13T08:31:07;95504.44;;;16.82;71.09
24280;BME280;12395;42.808;23.408;2023-10-13T08:33:50;95505.38;;;17.00;69.25
24280;BME280;12395;42.808;23.408;2023-10-13T08:36:22;95504.09;;;17.02;68.60
24280;BME280;12395;42.808;23.408;2023-10-13T08:38:55;95505.59;;;16.98;68.02
24280;BME280;12395;42.808;23.408;2023-10-13T08:41:21;95511.75;;;16.98;68.57
24280;BME280;12395;42.808;23.408;2023-10-13T08:43:49;95497.91;;;16.90;69.69
24280;BME280;12395;42.808;23.408;2023-10-13T08:46:16;95499.06;;;16.94;70.01
24280;BME280;12395;42.808;23.408;2023-10-13T08:48:59;95501.88;;;16.99;69.87
24280;BME280;12395;42.808;23.408;2023-10-13T08:51:39;95492.91;;;17.05;70.03
24280;BME280;12395;42.808;23.408;2023-10-13T08:54:13;95501.41;;;17.25;68.76
24280;BME280;12395;42.808;23.408;2023-10-13T08:56:48;95494.63;;;17.34;67.70
24280;BME280;12395;42.808;23.408;2023-10-13T08:59:21;95495.13;;;17.54;67.34
24280;BME280;12395;42.808;23.408;2023-10-13T09:01:48;95500.91;;;17.75;65.00
24280;BME280;12395;42.808;23.408;2023-10-13T09:04:18;95484.47;;;17.71;64.06
24280;BME280;12395;42.808;23.408;2023-10-13T09:06:54;95502.13;;;17.95;63.69
24280;BME280;12395;42.808;23.408;2023-10-13T09:12:11;95497.03;;;18.22;61.97
24280;BME280;12395;42.808;23.408;2023-10-13T09:14:40;95496.56;;;18.41;61.46
24280;BME280;12395;42.808;23.408;2023-10-13T09:17:22;95493.22;;;18.79;60.48
24280;BME280;12395;42.808;23.408;2023-10-13T09:20:01;95492.38;;;19.12;59.97
24280;BME280;12395;42.808;23.408;2023-10-13T09:22:46;95475.19;;;19.46;59.05
24280;BME280;12395;42.808;23.408;2023-10-13T09:25:30;95490.47;;;19.84;56.62
24280;BME280;12395;42.808;23.408;2023-10-13T09:28:01;95487.72;;;20.00;56.28
24280;BME280;12395;42.808;23.408;2023-10-13T09:30:27;95480.84;;;20.10;54.85
24280;BME280;12395;42.808;23.408;2023-10-13T09:33:02;95486.97;;;20.05;55.66
24280;BME280;12395;42.808;23.408;2023-10-13T09:35:34;95485.03;;;20.00;56.07
24280;BME280;12395;42.808;23.408;2023-10-13T09:38:02;95480.84;;;20.10;55.59
24280;BME280;12395;42.808;23.408;2023-10-13T09:40:29;95477.69;;;20.18;55.29
24280;BME280;12395;42.808;23.408;2023-10-13T09:42:57;95478.97;;;20.10;54.95
24280;BME280;12395;42.808;23.408;2023-10-13T09:45:28;95475.00;;;19.96;54.98
24280;BME280;12395;42.808;23.408;2023-10-13T09:47:55;95467.66;;;19.86;55.31
24280;BME280;12395;42.808;23.408;2023-10-13T09:50:27;95470.00;;;19.83;56.52
24280;BME280;12395;42.808;23.408;2023-10-13T09:52:59;95455.97;;;19.76;55.71
24280;BME280;12395;42.808;23.408;2023-10-13T09:55:33;95469.06;;;19.94;55.80
24280;BME280;12395;42.808;23.408;2023-10-13T09:58:19;95456.00;;;20.02;54.65
24280;BME280;12395;42.808;23.408;2023-10-13T10:00:50;95445.03;;;20.09;54.85
24280;BME280;12395;42.808;23.408;2023-10-13T10:03:44;95449.22;;;20.22;55.13
24280;BME280;12395;42.808;23.408;2023-10-13T10:06:21;95454.28;;;20.40;55.19
24280;BME280;12395;42.808;23.408;2023-10-13T10:09:07;95448.50;;;20.58;55.14
24280;BME280;12395;42.808;23.408;2023-10-13T10:15:06;95441.28;;;20.95;53.07
24280;BME280;12395;42.808;23.408;2023-10-13T10:17:43;95425.25;;;21.10;52.43
24280;BME280;12395;42.808;23.408;2023-10-13T10:20:10;95418.59;;;21.23;51.41
24280;BME280;12395;42.808;23.408;2023-10-13T10:23:01;95428.66;;;21.42;51.85
24280;BME280;12395;42.808;23.408;2023-10-13T10:25:31;95416.25;;;21.41;50.77
24280;BME280;12395;42.808;23.408;2023-10-13T10:28:05;95421.16;;;21.55;51.53
24280;BME280;12395;42.808;23.408;2023-10-13T10:30:33;95426.53;;;21.49;50.64
24280;BME280;12395;42.808;23.408;2023-10-13T10:33:00;95419.03;;;21.57;52.42
24280;BME280;12395;42.808;23.408;2023-10-13T10:35:27;95425.00;;;21.64;51.74
24280;BME280;12395;42.808;23.408;2023-10-13T10:41:08;95417.28;;;21.82;51.31
24280;BME280;12395;42.808;23.408;2023-10-13T10:43:39;95410.56;;;21.95;50.56
24280;BME280;12395;42.808;23.408;2023-10-13T10:46:28;95407.41;;;22.23;47.31
24280;BME280;12395;42.808;23.408;2023-10-13T10:48:57;95392.28;;;22.37;48.26
24280;BME280;12395;42.808;23.408;2023-10-13T10:51:26;95387.44;;;22.44;47.85
24280;BME280;12395;42.808;23.408;2023-10-13T10:53:57;95397.72;;;22.57;46.54
24280;BME280;12395;42.808;23.408;2023-10-13T10:56:26;95385.81;;;22.58;46.69
24280;BME280;12395;42.808;23.408;2023-10-13T10:59:06;95386.38;;;22.55;46.84
24280;BME280;12395;42.808;23.408;2023-10-13T11:01:44;95395.00;;;22.52;45.53
24280;BME280;12395;42.808;23.408;2023-10-13T11:04:13;95380.97;;;22.30;45.36
24280;BME280;12395;42.808;23.408;2023-10-13T11:06:50;95376.06;;;22.22;46.78
24280;BME280;12395;42.808;23.408;2023-10-13T11:09:40;95381.78;;;22.41;46.83
24280;BME280;12395;42.808;23.408;2023-10-13T11:15:05;95373.94;;;22.49;46.22
24280;BME280;12395;42.808;23.408;2023-10-13T11:17:39;95355.06;;;22.64;46.16
24280;BME280;12395;42.808;23.408;2023-10-13T11:20:12;95372.56;;;22.97;46.32
24280;BME280;12395;42.808;23.408;2023-10-13T11:22:43;95367.41;;;23.16;46.04
24280;BME280;12395;42.808;23.408;2023-10-13T11:25:20;95360.34;;;23.25;45.18
24280;BME280;12395;42.808;23.408;2023-10-13T11:27:48;95364.94;;;23.29;45.65
24280;BME280;12395;42.808;23.408;2023-10-13T11:30:17;95359.28;;;23.31;44.99
24280;BME280;12395;42.808;23.408;2023-10-13T11:33:02;95352.50;;;23.33;44.30
24280;BME280;12395;42.808;23.408;2023-10-13T11:35:34;95358.97;;;23.32;45.18
24280;BME280;12395;42.808;23.408;2023-10-13T11:38:19;95349.00;;;23.33;43.30
24280;BME280;12395;42.808;23.408;2023-10-13T11:40:57;95351.16;;;23.36;44.52
24280;BME280;12395;42.808;23.408;2023-10-13T11:43:28;95333.31;;;23.35;43.43
24280;BME280;12395;42.808;23.408;2023-10-13T11:45:56;95347.56;;;23.50;43.36
24280;BME280;12395;42.808;23.408;2023-10-13T11:48:34;95341.88;;;23.57;42.94
24280;BME280;12395;42.808;23.408;2023-10-13T11:51:04;95336.16;;;23.63;42.02
24280;BME280;12395;42.808;23.408;2023-10-13T11:53:33;95331.03;;;23.57;41.70
24280;BME280;12395;42.808;23.408;2023-10-13T11:56:00;95321.84;;;23.63;42.29
24280;BME280;12395;42.808;23.408;2023-10-13T11:58:25;95330.97;;;23.77;43.86
24280;BME280;12395;42.808;23.408;2023-10-13T12:00:51;95332.25;;;23.85;41.65
24280;BME280;12395;42.808;23.408;2023-10-13T12:03:19;95326.06;;;23.84;40.76
24280;BME280;12395;42.808;23.408;2023-10-13T12:06:02;95316.59;;;23.76;41.17
24280;BME280;12395;42.808;23.408;2023-10-13T12:09:08;95326.50;;;23.96;41.23
24280;BME280;12395;42.808;23.408;2023-10-13T12:11:59;95318.69;;;23.95;37.69
24280;BME280;12395;42.808;23.408;2023-10-13T12:14:29;95318.38;;;23.96;38.69
24280;BME280;12395;42.808;23.408;2023-10-13T12:17:02;95301.31;;;24.01;39.52
24280;BME280;12395;42.808;23.408;2023-10-13T12:19:36;95320.47;;;24.14;36.94
24280;BME280;12395;42.808;23.408;2023-10-13T12:22:04;95308.00;;;24.13;38.68
24280;BME280;12395;42.808;23.408;2023-10-13T12:24:34;95299.91;;;24.08;38.67
24280;BME280;12395;42.808;23.408;2023-10-13T12:26:59;95305.34;;;24.08;36.70
24280;BME280;12395;42.808;23.408;2023-10-13T12:29:25;95303.66;;;24.17;37.39
24280;BME280;12395;42.808;23.408;2023-10-13T12:32:00;95288.78;;;24.15;37.87
24280;BME280;12395;42.808;23.408;2023-10-13T12:34:37;95293.88;;;24.21;37.85
24280;BME280;12395;42.808;23.408;2023-10-13T12:37:20;95297.09;;;24.23;36.33
24280;BME280;12395;42.808;23.408;2023-10-13T12:40:21;95299.28;;;24.21;37.74
24280;BME280;12395;42.808;23.408;2023-10-13T12:43:05;95287.16;;;24.14;38.25
24280;BME280;12395;42.808;23.408;2023-10-13T12:45:50;95289.09;;;24.08;38.08
24280;BME280;12395;42.808;23.408;2023-10-13T12:48:36;95287.16;;;24.14;37.53
24280;BME280;12395;42.808;23.408;2023-10-13T12:51:20;95292.81;;;24.17;37.51
24280;BME280;12395;42.808;23.408;2023-10-13T12:53:51;95290.53;;;24.29;37.89
24280;BME280;12395;42.808;23.408;2023-10-13T12:56:17;95294.56;;;24.37;37.86
24280;BME280;12395;42.808;23.408;2023-10-13T12:58:43;95282.09;;;24.36;36.88
24280;BME280;12395;42.808;23.408;2023-10-13T13:01:19;95286.75;;;24.30;36.86
24280;BME280;12395;42.808;23.408;2023-10-13T13:03:46;95295.38;;;24.37;36.16
24280;BME280;12395;42.808;23.408;2023-10-13T13:06:19;95283.16;;;24.40;36.07
24280;BME280;12395;42.808;23.408;2023-10-13T13:08:54;95290.94;;;24.46;36.54
24280;BME280;12395;42.808;23.408;2023-10-13T13:11:20;95290.09;;;24.51;35.95
24280;BME280;12395;42.808;23.408;2023-10-13T13:13:46;95287.72;;;24.44;34.96
24280;BME280;12395;42.808;23.408;2023-10-13T13:16:13;95275.84;;;24.40;34.64
24280;BME280;12395;42.808;23.408;2023-10-13T13:18:38;95267.25;;;24.33;35.49
24280;BME280;12395;42.808;23.408;2023-10-13T13:21:04;95285.00;;;24.44;35.48
24280;BME280;12395;42.808;23.408;2023-10-13T13:23:31;95281.25;;;24.40;36.20
24280;BME280;12395;42.808;23.408;2023-10-13T13:26:00;95284.41;;;24.52;35.47
24280;BME280;12395;42.808;23.408;2023-10-13T13:28:25;95270.72;;;24.39;36.40
24280;BME280;12395;42.808;23.408;2023-10-13T13:30:54;95274.66;;;24.51;36.42
24280;BME280;12395;42.808;23.408;2023-10-13T13:33:19;95276.03;;;24.49;37.27
24280;BME280;12395;42.808;23.408;2023-10-13T13:35:49;95277.94;;;24.48;36.34
24280;BME280;12395;42.808;23.408;2023-10-13T13:38:14;95278.78;;;24.44;35.55